CDT,Max TemperatureF,Mean TemperatureF,Min TemperatureF,Max Dew PointF,MeanDew PointF,Min DewpointF,Max Humidity, Mean Humidity, Min Humidity, Max Sea Level PressureIn, Mean Sea Level PressureIn, Min Sea Level PressureIn, Max VisibilityMiles, Mean VisibilityMiles, Min VisibilityMiles, Max Wind SpeedMPH, Mean Wind SpeedMPH, Max Gust SpeedMPH,PrecipitationIn, CloudCover, Events, WindDirDegrees
2012-9-1,72,70,68,69,67,66,97,94,90,29.94,29.84,29.78,10,5,1,25,15,32,0.80,8,Rain,250
2012-9-2,88,78,68,68,66,64,93,70,46,29.97,29.92,29.86,10,10,9,13,7,17,0.00,4,,303
2012-9-3,96,81,65,71,67,63,93,66,39,29.94,29.89,29.83,10,10,10,12,3,17,0.00,0,,146
2012-9-4,96,85,73,72,68,63,87,61,34,29.96,29.86,29.79,10,10,10,15,6,20,0.00,0,,124
2012-9-5,93,83,72,71,65,62,79,59,38,29.86,29.82,29.78,10,10,10,15,5,22,T,0,Rain,260
2012-9-6,93,82,71,69,65,59,84,63,41,29.95,29.89,29.84,10,10,10,24,7,28,T,0,Rain,138
2012-9-7,93,77,61,69,64,58,90,65,39,29.98,29.87,29.69,10,8,1,39,12,58,0.70,5,Rain-Thunderstorm,313
2012-9-8,72,63,54,57,50,45,93,67,40,30.12,30.06,30.00,10,10,10,21,9,25,0.00,0,,327
2012-9-9,76,64,52,52,49,47,83,61,38,30.14,30.09,30.03,10,10,10,16,8,21,0.00,0,,339
2012-9-10,78,65,52,52,49,47,83,60,36,30.19,30.13,30.07,10,10,10,16,8,21,0.00,0,,140
2012-9-11,85,72,58,58,55,52,78,58,37,30.12,30.07,30.02,10,10,10,16,11,23,0.00,0,,153
2012-9-12,83,73,62,58,55,53,78,58,37,30.14,30.08,30.03,10,10,10,17,12,21,0.00,0,,157
2012-9-13,85,72,58,62,57,53,80,66,51,30.28,30.16,30.09,10,10,10,28,12,35,0.00,3,,97
2012-9-14,61,58,54,57,54,50,93,87,80,30.30,30.27,30.23,10,10,8,17,11,32,0.07,8,Rain,48
2012-9-15,63,61,58,60,58,55,100,95,90,30.26,30.19,30.11,10,5,1,17,6,22,1.98,8,Rain,94
2012-9-16,72,66,60,64,61,59,100,87,73,30.11,30.05,29.97,10,6,1,10,4,12,0.00,7,,139
2012-9-17,74,68,61,64,61,58,100,82,64,29.96,29.92,29.82,10,7,0,20,3,24,0.00,6,Fog,300
2012-9-18,68,58,47,55,45,37,93,64,34,30.10,30.03,29.92,10,10,10,21,9,26,T,2,,336
2012-9-19,76,62,47,49,45,40,86,61,36,30.13,30.05,29.97,10,10,10,22,12,26,0.00,0,,175
2012-9-20,77,65,52,54,48,42,83,58,33,30.02,30.00,29.95,10,10,2,15,7,18,T,1,,145
2012-9-21,80,69,57,61,53,44,93,63,33,29.99,29.90,29.84,10,9,2,20,10,26,0.78,3,Rain-Thunderstorm,222
2012-9-22,73,61,49,49,42,33,80,56,31,30.22,30.10,29.96,10,10,10,20,7,24,0.00,0,,354
2012-9-23,69,55,41,42,36,33,76,53,29,30.32,30.26,30.22,10,10,7,10,5,15,0.00,1,,79
2012-9-24,77,64,51,56,47,39,68,56,43,30.22,30.06,29.90,10,10,10,25,14,32,0.00,1,,155
2012-9-25,86,75,64,62,58,54,84,62,40,29.99,29.87,29.82,10,10,10,28,13,35,0.00,1,,202
2012-9-26,73,67,60,64,60,55,90,77,63,30.07,29.99,29.93,10,9,2,18,5,22,0.67,6,Rain-Thunderstorm,58
2012-9-27,76,70,64,65,63,62,93,79,64,30.15,30.10,30.06,10,9,4,15,4,17,0.09,6,Rain-Thunderstorm,57
2012-9-28,76,69,62,65,63,58,100,82,64,30.14,30.09,30.05,10,7,0,17,7,21,T,6,Fog,55
2012-9-29,73,66,59,57,52,48,84,64,44,30.11,30.06,29.99,10,10,10,12,6,15,0.02,4,,65
2012-9-30,72,63,53,55,52,47,93,69,44,29.99,29.92,29.85,10,10,10,9,3,14,0.00,0,,7